Time;durP1;ratioP1;P1;durP2;ratioP2;P2;SDS_P1;SDS_P2;PMS_P1;PMS_P2;Temp;Humidity;BMP_temperature;BMP_pressure;BME280_temperature;BME280_humidity;BME280_pressure;Samples;Min_cycle;Max_cycle;Signal;HPM_P1;HPM_P2
2022/07/03 00:00:29;;;;;;;;;;;14.00;99.90;;;;;;5073589;28;20365;-71
2022/07/03 00:02:56;;;;;;;;;;;14.00;99.90;;;;;;5072046;28;19944;-72
2022/07/03 00:05:23;;;;;;;;;;;14.10;99.90;;;;;;5074517;28;19913;-72
2022/07/03 00:07:50;;;;;;;;;;;14.10;99.90;;;;;;5074557;28;19909;-72
2022/07/03 00:10:17;;;;;;;;;;;14.20;99.90;;;;;;5072149;28;19909;-68
2022/07/03 00:12:44;;;;;;;;;;;14.10;99.90;;;;;;5074740;28;19908;-73
2022/07/03 00:15:11;;;;;;;;;;;14.10;99.90;;;;;;5074331;28;19916;-69
2022/07/03 00:17:38;;;;;;;;;;;14.10;99.90;;;;;;5071531;28;19916;-74
2022/07/03 00:20:05;;;;;;;;;;;14.20;99.90;;;;;;5074520;28;19931;-74
2022/07/03 00:22:33;;;;;;;;;;;14.20;99.90;;;;;;5074396;28;20055;-73
2022/07/03 00:25:05;;;;;;;;;;;14.20;99.90;;;;;;5073712;28;20281;-72
2022/07/03 00:27:33;;;;;;;;;;;14.30;99.90;;;;;;5073101;28;19927;-73
2022/07/03 00:30:01;;;;;;;;;;;14.30;99.90;;;;;;5072010;28;19908;-70
2022/07/03 00:32:28;;;;;;;;;;;14.40;99.90;;;;;;5072603;28;20353;-73
2022/07/03 00:34:56;;;;;;;;;;;14.30;99.90;;;;;;5073303;28;19919;-69
2022/07/03 00:37:23;;;;;;;;;;;14.40;99.90;;;;;;5071763;28;20277;-73
2022/07/03 00:39:50;;;;;;;;;;;14.40;99.90;;;;;;5073815;28;19913;-69
2022/07/03 00:42:17;;;;;;;;;;;14.40;99.90;;;;;;5070968;28;19952;-72
2022/07/03 00:44:46;;;;;;;;;;;14.40;99.90;;;;;;5073615;28;20442;-70
2022/07/03 00:47:13;;;;;;;;;;;14.40;99.90;;;;;;5073570;28;20327;-69
2022/07/03 00:49:41;;;;;;;;;;;14.50;99.90;;;;;;5073678;28;20357;-69
2022/07/03 00:52:09;;;;;;;;;;;14.40;99.90;;;;;;5073860;28;19909;-74
2022/07/03 00:54:35;;;;;;;;;;;14.50;99.90;;;;;;5073532;28;19909;-69
2022/07/03 00:57:03;;;;;;;;;;;14.40;99.90;;;;;;5073651;28;20353;-68
2022/07/03 00:59:30;;;;;;;;;;;14.30;99.90;;;;;;5073703;28;20323;-69
2022/07/03 01:02:01;;;;;;;;;;;14.20;99.90;;;;;;5070556;28;20023;-73
2022/07/03 01:04:46;;;;;;;;;;;14.10;99.90;;;;;;5072917;28;20015;-68
2022/07/03 01:07:18;;;;;;;;;;;14.00;99.90;;;;;;5072860;28;19909;-72
2022/07/03 01:09:54;;;;;;;;;;;14.00;99.90;;;;;;5073412;28;19954;-69
2022/07/03 01:12:26;;;;;;;;;;;14.00;99.90;;;;;;5071287;28;19951;-68
2022/07/03 01:14:53;;;;;;;;;;;14.10;99.90;;;;;;5073122;28;19931;-69
2022/07/03 01:17:32;;;;;;;;;;;14.00;99.90;;;;;;5071959;28;19931;-72
2022/07/03 01:20:01;;;;;;;;;;;14.10;99.90;;;;;;5069934;28;19939;-72
2022/07/03 01:22:34;;;;;;;;;;;14.10;99.90;;;;;;5071307;28;20072;-70
2022/07/03 01:25:04;;;;;;;;;;;14.10;99.90;;;;;;5070461;28;19932;-69
2022/07/03 01:27:48;;;;;;;;;;;14.10;99.90;;;;;;5071452;28;19912;-72
2022/07/03 01:30:15;;;;;;;;;;;14.20;99.90;;;;;;5070538;28;19913;-73
2022/07/03 01:32:44;;;;;;;;;;;14.20;99.90;;;;;;5068636;28;19916;-74
2022/07/03 01:35:13;;;;;;;;;;;14.20;99.90;;;;;;5072394;28;19920;-69
2022/07/03 01:37:40;;;;;;;;;;;14.20;99.90;;;;;;5072714;28;20288;-69
2022/07/03 01:40:08;;;;;;;;;;;14.20;99.90;;;;;;5072888;28;19932;-72
2022/07/03 01:42:38;;;;;;;;;;;14.30;99.90;;;;;;5072993;28;19912;-74
2022/07/03 01:45:05;;;;;;;;;;;14.20;99.90;;;;;;5073489;28;19922;-69
2022/07/03 01:47:34;;;;;;;;;;;14.30;99.90;;;;;;5072998;28;19908;-69
2022/07/03 01:50:01;;;;;;;;;;;14.30;99.90;;;;;;5073024;28;20001;-69
2022/07/03 01:52:30;;;;;;;;;;;14.30;99.90;;;;;;5073095;28;19909;-75
2022/07/03 01:55:00;;;;;;;;;;;14.20;99.90;;;;;;5070641;28;19959;-74
2022/07/03 01:57:34;;;;;;;;;;;14.20;99.90;;;;;;5069614;28;19912;-69
2022/07/03 02:00:01;;;;;;;;;;;14.10;99.90;;;;;;5070105;28;20006;-75
2022/07/03 02:02:34;;;;;;;;;;;14.10;99.90;;;;;;5072286;28;20372;-74
2022/07/03 02:05:07;;;;;;;;;;;14.10;99.90;;;;;;5072360;28;19917;-69
2022/07/03 02:07:56;;;;;;;;;;;14.10;99.90;;;;;;5073144;28;19908;-69
2022/07/03 02:10:27;;;;;;;;;;;14.10;99.90;;;;;;5070058;28;19999;-74
2022/07/03 02:13:02;;;;;;;;;;;14.10;99.90;;;;;;5072830;28;19909;-74
2022/07/03 02:15:33;;;;;;;;;;;14.10;99.90;;;;;;5072885;28;19919;-73
2022/07/03 02:18:11;;;;;;;;;;;14.10;99.90;;;;;;5072253;28;20272;-73
2022/07/03 02:20:40;;;;;;;;;;;14.10;99.90;;;;;;5073105;28;19918;-73
2022/07/03 02:23:08;;;;;;;;;;;14.10;99.90;;;;;;5072940;28;19915;-73
2022/07/03 02:25:40;;;;;;;;;;;14.00;99.90;;;;;;5105268;28;20265;-73
2022/07/03 02:28:27;;;;;;;;;;;14.00;99.90;;;;;;5072852;28;19962;-73
2022/07/03 02:30:56;;;;;;;;;;;14.00;99.90;;;;;;5061148;28;19916;-74
2022/07/03 02:33:25;;;;;;;;;;;14.00;99.90;;;;;;5072876;28;20273;-73
2022/07/03 02:35:53;;;;;;;;;;;14.00;99.90;;;;;;5071244;28;19944;-73
2022/07/03 02:38:20;;;;;;;;;;;14.00;99.90;;;;;;5067371;28;20361;-74
2022/07/03 02:40:53;;;;;;;;;;;14.00;99.90;;;;;;5072842;28;20011;-74
2022/07/03 02:43:38;;;;;;;;;;;14.00;99.90;;;;;;5072938;28;20059;-69
2022/07/03 02:49:18;;;;;;;;;;;14.00;99.90;;;;;;5072727;28;19931;-74
2022/07/03 02:52:11;;;;;;;;;;;13.90;99.90;;;;;;5062219;28;19999;-69
2022/07/03 02:54:44;;;;;;;;;;;13.90;99.90;;;;;;5055884;28;20281;-71
2022/07/03 02:57:13;;;;;;;;;;;13.90;99.90;;;;;;5060260;28;19962;-73
2022/07/03 02:59:56;;;;;;;;;;;13.90;99.90;;;;;;5057943;28;19909;-69
2022/07/03 03:02:22;;;;;;;;;;;14.00;99.90;;;;;;5057241;28;19991;-73
2022/07/03 03:04:58;;;;;;;;;;;13.90;99.90;;;;;;5057583;28;19921;-73
2022/07/03 03:07:44;;;;;;;;;;;13.90;99.90;;;;;;5067861;28;20325;-72
2022/07/03 03:10:12;;;;;;;;;;;13.80;99.90;;;;;;5075617;28;19962;-72
2022/07/03 03:12:41;;;;;;;;;;;13.80;99.90;;;;;;5065429;28;20288;-72
2022/07/03 03:15:11;;;;;;;;;;;13.80;99.90;;;;;;5074786;28;19908;-72
2022/07/03 03:17:50;;;;;;;;;;;13.80;99.90;;;;;;5075008;28;19962;-73
2022/07/03 03:20:18;;;;;;;;;;;13.80;99.90;;;;;;5075908;28;20388;-68
2022/07/03 03:23:13;;;;;;;;;;;13.80;99.90;;;;;;5075614;28;19908;-69
2022/07/03 03:25:40;;;;;;;;;;;13.70;99.90;;;;;;5070182;28;20362;-72
2022/07/03 03:28:07;;;;;;;;;;;13.70;99.90;;;;;;5074973;28;20262;-73
2022/07/03 03:30:35;;;;;;;;;;;13.70;99.90;;;;;;5075546;28;19948;-73
2022/07/03 03:33:02;;;;;;;;;;;13.70;99.90;;;;;;5075128;28;20378;-69
2022/07/03 03:35:31;;;;;;;;;;;13.70;99.90;;;;;;5075426;28;19987;-73
2022/07/03 03:37:57;;;;;;;;;;;13.70;99.90;;;;;;5074272;28;19957;-74
2022/07/03 03:40:24;;;;;;;;;;;13.70;99.90;;;;;;5075381;28;19931;-73
2022/07/03 03:42:51;;;;;;;;;;;13.70;99.90;;;;;;5075322;28;20425;-73
2022/07/03 03:45:17;;;;;;;;;;;13.70;99.90;;;;;;5075200;28;19924;-74
2022/07/03 03:47:44;;;;;;;;;;;13.70;99.90;;;;;;5075029;28;20272;-70
2022/07/03 03:50:11;;;;;;;;;;;13.70;99.90;;;;;;5075104;28;19908;-69
2022/07/03 03:52:38;;;;;;;;;;;13.70;99.90;;;;;;5075220;28;20342;-71
2022/07/03 03:55:05;;;;;;;;;;;13.70;99.90;;;;;;5074903;28;19913;-73
2022/07/03 03:57:32;;;;;;;;;;;13.60;99.90;;;;;;5075106;28;19979;-74
2022/07/03 03:59:58;;;;;;;;;;;13.60;99.90;;;;;;5074769;28;19952;-73
2022/07/03 04:02:25;;;;;;;;;;;13.60;99.90;;;;;;5074213;28;20250;-73
2022/07/03 04:04:51;;;;;;;;;;;13.60;99.90;;;;;;5070983;28;19917;-70
2022/07/03 04:07:18;;;;;;;;;;;13.70;99.90;;;;;;5072040;28;19912;-73
2022/07/03 04:09:45;;;;;;;;;;;13.70;99.90;;;;;;5074841;28;19941;-70
2022/07/03 04:12:12;;;;;;;;;;;13.60;99.90;;;;;;5074949;28;19916;-74
2022/07/03 04:14:38;;;;;;;;;;;13.60;99.90;;;;;;5074731;28;20361;-69
2022/07/03 04:17:05;;;;;;;;;;;13.60;99.90;;;;;;5073965;28;19958;-73
2022/07/03 04:19:32;;;;;;;;;;;13.50;99.90;;;;;;5074659;28;19916;-73
2022/07/03 04:21:58;;;;;;;;;;;13.50;99.90;;;;;;5073802;28;19912;-69
2022/07/03 04:24:25;;;;;;;;;;;13.60;99.90;;;;;;5074326;28;20011;-70
2022/07/03 04:26:52;;;;;;;;;;;13.50;99.90;;;;;;5074241;28;19909;-73
2022/07/03 04:29:18;;;;;;;;;;;13.50;99.90;;;;;;5074162;28;19916;-69
2022/07/03 04:31:45;;;;;;;;;;;13.60;99.90;;;;;;5074130;28;20405;-70
2022/07/03 04:34:12;;;;;;;;;;;13.70;99.90;;;;;;5074460;28;20001;-71
2022/07/03 04:36:39;;;;;;;;;;;13.60;99.90;;;;;;5072796;28;19919;-74
2022/07/03 04:39:06;;;;;;;;;;;13.60;99.90;;;;;;5074268;28;19921;-73
2022/07/03 04:41:32;;;;;;;;;;;13.60;99.90;;;;;;5074412;28;19908;-74
2022/07/03 04:43:59;;;;;;;;;;;13.60;99.90;;;;;;5061773;28;19925;-70
2022/07/03 04:46:25;;;;;;;;;;;13.60;99.90;;;;;;5054472;28;20281;-69
2022/07/03 04:48:52;;;;;;;;;;;13.60;99.90;;;;;;5054590;28;19924;-70
2022/07/03 04:51:19;;;;;;;;;;;13.50;99.90;;;;;;5053074;28;20268;-69
2022/07/03 04:53:45;;;;;;;;;;;13.60;99.90;;;;;;5055572;28;19913;-69
2022/07/03 04:56:12;;;;;;;;;;;13.60;99.90;;;;;;5054407;28;19944;-72
2022/07/03 04:58:39;;;;;;;;;;;13.50;99.90;;;;;;5054468;28;19917;-69
2022/07/03 05:01:05;;;;;;;;;;;13.50;99.90;;;;;;5057054;28;19913;-73
2022/07/03 05:03:32;;;;;;;;;;;13.50;99.90;;;;;;5056029;28;19919;-72
2022/07/03 05:05:59;;;;;;;;;;;13.40;99.90;;;;;;5056408;28;19932;-70
2022/07/03 05:08:25;;;;;;;;;;;13.40;99.90;;;;;;5054213;28;19995;-70
2022/07/03 05:10:52;;;;;;;;;;;13.30;99.90;;;;;;5053380;28;19912;-73
2022/07/03 05:13:19;;;;;;;;;;;13.30;99.90;;;;;;5064893;28;19917;-69
2022/07/03 05:15:46;;;;;;;;;;;13.30;99.90;;;;;;5103320;28;20317;-69
2022/07/03 05:18:12;;;;;;;;;;;13.30;99.90;;;;;;5071278;28;20452;-71
2022/07/03 05:20:39;;;;;;;;;;;13.20;99.90;;;;;;5071395;28;19962;-69
2022/07/03 05:23:06;;;;;;;;;;;13.20;99.90;;;;;;5071553;28;19909;-73
2022/07/03 05:25:32;;;;;;;;;;;13.20;99.90;;;;;;5066273;28;19928;-73
2022/07/03 05:27:59;;;;;;;;;;;13.10;99.90;;;;;;5053332;28;20358;-72
2022/07/03 05:30:26;;;;;;;;;;;13.10;99.90;;;;;;5055980;28;20385;-72
2022/07/03 05:32:53;;;;;;;;;;;13.10;99.90;;;;;;5054503;28;19916;-72
2022/07/03 05:35:20;;;;;;;;;;;13.10;99.90;;;;;;5055510;28;19909;-69
2022/07/03 05:37:46;;;;;;;;;;;13.10;99.90;;;;;;5053661;28;19925;-70
2022/07/03 05:40:13;;;;;;;;;;;13.10;99.90;;;;;;5053890;28;19924;-69
2022/07/03 05:42:40;;;;;;;;;;;13.10;99.90;;;;;;5053120;28;19909;-72
2022/07/03 05:45:07;;;;;;;;;;;13.00;99.90;;;;;;5055330;28;20015;-69
2022/07/03 05:47:34;;;;;;;;;;;13.00;99.90;;;;;;5056560;28;19915;-71
2022/07/03 05:50:00;;;;;;;;;;;13.00;99.90;;;;;;5054694;28;19909;-69
2022/07/03 05:52:27;;;;;;;;;;;13.00;99.90;;;;;;5055348;28;19909;-71
2022/07/03 05:54:54;;;;;;;;;;;13.00;99.90;;;;;;5053730;28;20008;-73
2022/07/03 05:57:21;;;;;;;;;;;13.00;99.90;;;;;;5052257;28;20046;-74
2022/07/03 05:59:48;;;;;;;;;;;13.00;99.90;;;;;;5052561;28;19912;-73
2022/07/03 06:02:14;;;;;;;;;;;13.10;99.90;;;;;;5056334;28;19909;-69
2022/07/03 06:04:41;;;;;;;;;;;13.10;99.90;;;;;;5056230;28;20277;-71
2022/07/03 06:07:07;;;;;;;;;;;13.10;99.90;;;;;;5053148;28;19909;-69
2022/07/03 06:09:34;;;;;;;;;;;13.10;99.90;;;;;;5054478;28;20365;-73
2022/07/03 06:12:01;;;;;;;;;;;13.10;99.90;;;;;;5055450;28;19916;-69
2022/07/03 06:14:27;;;;;;;;;;;13.10;99.90;;;;;;5054104;28;20385;-69
2022/07/03 06:16:54;;;;;;;;;;;13.10;99.90;;;;;;5058320;28;19962;-73
2022/07/03 06:19:20;;;;;;;;;;;13.20;99.90;;;;;;5055626;28;19912;-70
2022/07/03 06:21:47;;;;;;;;;;;13.20;99.90;;;;;;5055655;28;19909;-69
2022/07/03 06:24:14;;;;;;;;;;;13.20;99.90;;;;;;5053513;28;20381;-69
2022/07/03 06:26:41;;;;;;;;;;;13.10;99.90;;;;;;5053830;28;20324;-69
2022/07/03 06:29:07;;;;;;;;;;;13.10;99.90;;;;;;5055206;28;19909;-74
2022/07/03 06:31:34;;;;;;;;;;;13.10;99.90;;;;;;5055961;28;19909;-69
2022/07/03 06:34:00;;;;;;;;;;;13.10;99.90;;;;;;5059566;28;20349;-70
2022/07/03 06:36:27;;;;;;;;;;;13.10;99.90;;;;;;5055698;28;19913;-69
2022/07/03 06:38:54;;;;;;;;;;;13.10;99.90;;;;;;5058432;28;20336;-74
2022/07/03 06:41:20;;;;;;;;;;;13.10;99.90;;;;;;5057148;28;19909;-69
2022/07/03 06:43:47;;;;;;;;;;;13.20;99.90;;;;;;5055677;28;20360;-69
2022/07/03 06:46:14;;;;;;;;;;;13.10;99.90;;;;;;5056236;28;19909;-69
2022/07/03 06:48:40;;;;;;;;;;;13.10;99.90;;;;;;5056514;28;19954;-68
2022/07/03 06:51:07;;;;;;;;;;;13.10;99.90;;;;;;5063985;28;19920;-69
2022/07/03 06:53:34;;;;;;;;;;;13.10;99.90;;;;;;5082514;28;19916;-69
2022/07/03 06:56:00;;;;;;;;;;;13.00;99.90;;;;;;5093827;28;19919;-72
2022/07/03 06:58:27;;;;;;;;;;;13.00;99.90;;;;;;5091087;28;19915;-68
2022/07/03 07:00:53;;;;;;;;;;;13.00;99.90;;;;;;5092513;28;19982;-71
2022/07/03 07:03:20;;;;;;;;;;;13.00;99.90;;;;;;5091738;28;20357;-70
2022/07/03 07:05:47;;;;;;;;;;;13.00;99.90;;;;;;5092506;28;19912;-71
2022/07/03 07:08:13;;;;;;;;;;;13.00;99.90;;;;;;5090808;28;19909;-74
2022/07/03 07:10:40;;;;;;;;;;;13.00;99.90;;;;;;5093092;28;19977;-74
2022/07/03 07:13:06;;;;;;;;;;;13.00;99.90;;;;;;5092637;28;19915;-73
2022/07/03 07:15:33;;;;;;;;;;;13.00;99.90;;;;;;5093739;28;19953;-66
2022/07/03 07:18:00;;;;;;;;;;;13.00;99.90;;;;;;5094007;28;19998;-67
2022/07/03 07:20:26;;;;;;;;;;;13.00;99.90;;;;;;5094895;28;19963;-70
2022/07/03 07:22:53;;;;;;;;;;;13.00;99.90;;;;;;5092637;28;19936;-67
2022/07/03 07:25:20;;;;;;;;;;;13.00;99.90;;;;;;5090248;28;20003;-72
2022/07/03 07:27:47;;;;;;;;;;;13.00;99.90;;;;;;5093375;28;19912;-71
2022/07/03 07:30:14;;;;;;;;;;;13.00;99.90;;;;;;5092067;28;19912;-67
2022/07/03 07:32:41;;;;;;;;;;;13.10;99.90;;;;;;5091832;28;19931;-67
2022/07/03 07:35:08;;;;;;;;;;;13.10;99.90;;;;;;5093711;28;19908;-67
2022/07/03 07:37:34;;;;;;;;;;;13.10;99.90;;;;;;5093578;28;19919;-70
2022/07/03 07:40:01;;;;;;;;;;;13.10;99.90;;;;;;5093024;28;20349;-73
2022/07/03 07:42:28;;;;;;;;;;;13.10;99.90;;;;;;5086929;28;19912;-72
2022/07/03 07:44:54;;;;;;;;;;;13.10;99.90;;;;;;5072962;28;19964;-69
2022/07/03 07:47:21;;;;;;;;;;;13.10;99.90;;;;;;5074301;28;20502;-69
2022/07/03 07:49:47;;;;;;;;;;;13.00;99.90;;;;;;5073738;28;19909;-68
2022/07/03 07:52:14;;;;;;;;;;;13.00;99.90;;;;;;5075396;28;19919;-69
2022/07/03 07:54:41;;;;;;;;;;;13.00;99.90;;;;;;5079166;28;19908;-70
2022/07/03 07:57:07;;;;;;;;;;;13.00;99.90;;;;;;5081693;28;19995;-71
2022/07/03 07:59:34;;;;;;;;;;;13.00;99.90;;;;;;5075598;28;20503;-70
2022/07/03 08:07:30;;;;;;;;;;;13.10;99.90;;;;;;5075409;28;19915;-69
2022/07/03 08:09:56;;;;;;;;;;;13.00;99.90;;;;;;5075208;28;19915;-67
2022/07/03 08:12:23;;;;;;;;;;;13.10;99.90;;;;;;5074883;28;19909;-72
2022/07/03 08:14:50;;;;;;;;;;;13.10;99.90;;;;;;5074642;28;20411;-67
2022/07/03 08:17:16;;;;;;;;;;;13.10;99.90;;;;;;5074071;28;19913;-67
2022/07/03 08:19:43;;;;;;;;;;;13.10;99.90;;;;;;5073772;28;19908;-74
2022/07/03 08:22:09;;;;;;;;;;;13.10;99.90;;;;;;5073438;28;19912;-69
2022/07/03 08:24:37;;;;;;;;;;;13.10;99.90;;;;;;5073089;28;19916;-71
2022/07/03 08:27:05;;;;;;;;;;;13.20;99.90;;;;;;5073465;28;20025;-72
2022/07/03 08:29:31;;;;;;;;;;;13.10;99.90;;;;;;5073540;28;20369;-75
2022/07/03 08:31:58;;;;;;;;;;;13.10;99.90;;;;;;5072903;28;19909;-68
2022/07/03 08:34:25;;;;;;;;;;;13.10;99.90;;;;;;5073538;28;19909;-71
2022/07/03 08:36:52;;;;;;;;;;;13.10;99.90;;;;;;5072719;28;19912;-68
2022/07/03 08:39:18;;;;;;;;;;;13.10;99.90;;;;;;5073297;28;19993;-70
2022/07/03 08:41:45;;;;;;;;;;;13.10;99.90;;;;;;5072652;28;20391;-72
2022/07/03 08:44:13;;;;;;;;;;;13.10;99.90;;;;;;5072805;28;20335;-73
2022/07/03 08:46:49;;;;;;;;;;;13.10;99.90;;;;;;5072443;28;21591;-69
2022/07/03 08:49:17;;;;;;;;;;;13.00;99.90;;;;;;5071276;28;20350;-72
2022/07/03 08:51:45;;;;;;;;;;;13.00;99.90;;;;;;5071909;28;19925;-70
2022/07/03 08:54:11;;;;;;;;;;;13.00;99.90;;;;;;5072994;28;19931;-70
2022/07/03 08:56:39;;;;;;;;;;;13.10;99.90;;;;;;5072702;28;19913;-67
2022/07/03 08:59:08;;;;;;;;;;;13.10;99.90;;;;;;5072391;28;19909;-66
2022/07/03 09:01:39;;;;;;;;;;;13.00;99.90;;;;;;5072955;28;20015;-67
2022/07/03 09:04:06;;;;;;;;;;;13.00;99.90;;;;;;5072747;28;19985;-67
2022/07/03 09:06:33;;;;;;;;;;;13.00;99.90;;;;;;5072518;28;20487;-67
2022/07/03 09:09:02;;;;;;;;;;;13.00;99.90;;;;;;5073143;28;19909;-67
2022/07/03 09:11:28;;;;;;;;;;;13.10;99.90;;;;;;5073201;28;20388;-68
2022/07/03 09:13:55;;;;;;;;;;;13.00;99.90;;;;;;5072861;28;20357;-71
2022/07/03 09:16:22;;;;;;;;;;;13.00;99.90;;;;;;5073209;28;19909;-67
2022/07/03 09:18:48;;;;;;;;;;;13.00;99.90;;;;;;5070600;28;20019;-68
2022/07/03 09:21:16;;;;;;;;;;;13.00;99.90;;;;;;5073279;28;20002;-70
2022/07/03 09:23:43;;;;;;;;;;;13.00;99.90;;;;;;5073183;28;19913;-67
2022/07/03 09:26:15;;;;;;;;;;;12.90;99.90;;;;;;5073320;28;19908;-66
2022/07/03 09:28:51;;;;;;;;;;;13.00;99.90;;;;;;5073074;28;20007;-66
2022/07/03 09:31:29;;;;;;;;;;;13.00;99.90;;;;;;5073228;28;19908;-66
2022/07/03 09:34:00;;;;;;;;;;;13.00;99.90;;;;;;5072646;28;19913;-67
2022/07/03 09:36:39;;;;;;;;;;;13.00;99.90;;;;;;5072059;28;19916;-67
2022/07/03 09:39:18;;;;;;;;;;;13.00;99.90;;;;;;5070778;28;19921;-70
2022/07/03 09:42:04;;;;;;;;;;;13.00;99.90;;;;;;5072363;28;19926;-68
2022/07/03 09:44:51;;;;;;;;;;;13.00;99.90;;;;;;5071630;28;19916;-68
2022/07/03 09:47:28;;;;;;;;;;;13.00;99.90;;;;;;5072157;28;20379;-70
2022/07/03 09:49:55;;;;;;;;;;;13.10;99.90;;;;;;5072197;28;19909;-67
2022/07/03 09:52:29;;;;;;;;;;;13.10;99.90;;;;;;5072288;28;19908;-69
2022/07/03 09:54:59;;;;;;;;;;;13.10;99.90;;;;;;5072213;28;19908;-68
2022/07/03 09:57:30;;;;;;;;;;;13.10;99.90;;;;;;5070511;28;19909;-68
2022/07/03 10:00:20;;;;;;;;;;;13.10;99.90;;;;;;5069495;28;19916;-73
2022/07/03 10:02:54;;;;;;;;;;;13.10;99.90;;;;;;5069734;28;19916;-69
2022/07/03 10:05:22;;;;;;;;;;;13.00;99.90;;;;;;5074808;28;19916;-71
2022/07/03 10:07:57;;;;;;;;;;;13.00;99.90;;;;;;5074704;28;20444;-72
2022/07/03 10:10:28;;;;;;;;;;;13.10;99.90;;;;;;5075258;28;19912;-74
2022/07/03 10:12:55;;;;;;;;;;;13.10;99.90;;;;;;5075508;28;20296;-73
2022/07/03 10:15:22;;;;;;;;;;;13.10;99.90;;;;;;5076527;28;20273;-73
2022/07/03 10:17:50;;;;;;;;;;;13.10;99.90;;;;;;5076723;28;19912;-69
2022/07/03 10:20:22;;;;;;;;;;;13.10;99.90;;;;;;5076361;28;20281;-73
2022/07/03 10:22:50;;;;;;;;;;;13.10;99.90;;;;;;5076260;28;19913;-71
2022/07/03 10:25:17;;;;;;;;;;;13.10;99.90;;;;;;5076423;28;19916;-72
2022/07/03 10:27:46;;;;;;;;;;;13.10;99.90;;;;;;5076466;28;19973;-72
2022/07/03 10:30:14;;;;;;;;;;;13.10;99.90;;;;;;5076496;28;20262;-74
2022/07/03 10:32:42;;;;;;;;;;;13.10;99.90;;;;;;5076281;28;19908;-71
2022/07/03 10:35:09;;;;;;;;;;;13.00;99.90;;;;;;5076020;28;19975;-68
2022/07/03 10:37:46;;;;;;;;;;;13.00;99.90;;;;;;5075885;28;19927;-73
2022/07/03 10:46:13;;;;;;;;;;;12.90;99.90;;;;;;5076417;28;19931;-71
2022/07/03 10:49:12;;;;;;;;;;;12.90;99.90;;;;;;5073692;28;19908;-73
2022/07/03 10:51:45;;;;;;;;;;;12.90;99.90;;;;;;5063719;28;19916;-68
2022/07/03 10:54:14;;;;;;;;;;;12.90;99.90;;;;;;5076135;28;19909;-73
2022/07/03 10:57:15;;;;;;;;;;;12.80;99.90;;;;;;5075934;28;19932;-69
2022/07/03 10:59:45;;;;;;;;;;;12.80;99.90;;;;;;5064079;28;19909;-73
2022/07/03 11:02:18;;;;;;;;;;;12.90;99.90;;;;;;5075984;28;19908;-68
2022/07/03 11:05:01;;;;;;;;;;;12.90;99.90;;;;;;5075678;28;20284;-74
2022/07/03 11:07:28;;;;;;;;;;;12.90;99.90;;;;;;5074925;28;19919;-68
2022/07/03 11:10:13;;;;;;;;;;;12.90;99.90;;;;;;5073950;28;19978;-68
2022/07/03 11:12:58;;;;;;;;;;;12.90;99.90;;;;;;5069762;28;20433;-72
2022/07/03 11:15:25;;;;;;;;;;;13.00;99.90;;;;;;5073441;28;19955;-74
2022/07/03 11:18:07;;;;;;;;;;;13.00;99.90;;;;;;5074756;28;19913;-69
2022/07/03 11:20:34;;;;;;;;;;;13.00;99.90;;;;;;5068084;28;19909;-68
2022/07/03 11:23:10;;;;;;;;;;;13.00;99.90;;;;;;5075725;28;19962;-68
2022/07/03 11:25:41;;;;;;;;;;;13.10;99.90;;;;;;5075541;28;19916;-74
2022/07/03 11:28:08;;;;;;;;;;;13.10;99.90;;;;;;5075600;28;19908;-72
2022/07/03 11:30:35;;;;;;;;;;;13.10;99.90;;;;;;5075046;28;19908;-73
2022/07/03 11:33:01;;;;;;;;;;;13.10;99.90;;;;;;5083403;28;19938;-70
2022/07/03 11:35:57;;;;;;;;;;;13.10;99.90;;;;;;5092395;28;19991;-69
2022/07/03 11:38:27;;;;;;;;;;;13.20;99.90;;;;;;5064533;28;19921;-68
2022/07/03 11:40:55;;;;;;;;;;;13.10;99.90;;;;;;5075490;28;19962;-68
2022/07/03 11:43:22;;;;;;;;;;;13.10;99.90;;;;;;5075442;28;19908;-68
2022/07/03 11:45:49;;;;;;;;;;;13.10;99.90;;;;;;5075225;28;20343;-68
2022/07/03 11:48:17;;;;;;;;;;;13.10;99.90;;;;;;5074864;28;19987;-70
2022/07/03 11:50:45;;;;;;;;;;;13.10;99.90;;;;;;5075226;28;20004;-69
2022/07/03 11:53:34;;;;;;;;;;;13.10;99.90;;;;;;5075104;28;19915;-69
2022/07/03 11:56:01;;;;;;;;;;;13.10;99.90;;;;;;5070846;28;20396;-69
2022/07/03 11:58:48;;;;;;;;;;;13.10;99.90;;;;;;5075011;28;19965;-69
2022/07/03 12:01:30;;;;;;;;;;;13.10;99.90;;;;;;5074964;28;20419;-69
2022/07/03 12:04:06;;;;;;;;;;;13.20;99.90;;;;;;5072808;28;20261;-68
2022/07/03 12:06:41;;;;;;;;;;;13.10;99.90;;;;;;5079140;28;20300;-68
2022/07/03 12:09:19;;;;;;;;;;;13.20;99.90;;;;;;5095269;28;19908;-72
2022/07/03 12:11:53;;;;;;;;;;;13.20;99.90;;;;;;5095169;28;19915;-69
2022/07/03 12:14:35;;;;;;;;;;;13.20;99.90;;;;;;5095205;28;19912;-68
2022/07/03 12:17:02;;;;;;;;;;;13.20;99.90;;;;;;5068447;28;20311;-68
2022/07/03 12:19:29;;;;;;;;;;;13.20;99.90;;;;;;5074761;28;19958;-69
2022/07/03 12:21:56;;;;;;;;;;;13.20;99.90;;;;;;5074741;28;19908;-69
2022/07/03 12:24:23;;;;;;;;;;;13.20;99.90;;;;;;5074561;28;19923;-73
2022/07/03 12:26:50;;;;;;;;;;;13.20;99.90;;;;;;5074404;28;19985;-69
2022/07/03 12:29:17;;;;;;;;;;;13.20;99.90;;;;;;5074533;28;20352;-72
2022/07/03 12:31:48;;;;;;;;;;;13.20;99.90;;;;;;5073242;28;20332;-73
2022/07/03 12:34:15;;;;;;;;;;;13.30;99.90;;;;;;5074518;28;19954;-68
2022/07/03 12:36:58;;;;;;;;;;;13.30;99.90;;;;;;5073952;28;19908;-69
2022/07/03 12:39:43;;;;;;;;;;;13.30;99.90;;;;;;5082711;28;20011;-71
2022/07/03 12:42:16;;;;;;;;;;;13.30;99.90;;;;;;5092325;28;19999;-68
2022/07/03 12:44:54;;;;;;;;;;;13.40;99.90;;;;;;5091773;28;19917;-68
2022/07/03 12:47:21;;;;;;;;;;;13.40;99.90;;;;;;5093219;28;19908;-71
2022/07/03 12:49:54;;;;;;;;;;;13.40;99.90;;;;;;5090712;28;19909;-69
2022/07/03 12:52:21;;;;;;;;;;;13.40;99.90;;;;;;5091096;28;19915;-69
2022/07/03 12:54:48;;;;;;;;;;;13.40;99.90;;;;;;5089168;28;20357;-74
2022/07/03 13:00:04;;;;;;;;;;;13.50;99.90;;;;;;5080651;28;20344;-72
2022/07/03 13:02:31;;;;;;;;;;;13.50;99.90;;;;;;5092579;28;20265;-68
2022/07/03 13:05:02;;;;;;;;;;;13.50;99.90;;;;;;5091804;28;19920;-73
2022/07/03 13:07:30;;;;;;;;;;;13.50;99.90;;;;;;5070684;28;19946;-68
2022/07/03 13:10:00;;;;;;;;;;;13.50;99.90;;;;;;5070442;28;19908;-69
2022/07/03 13:12:27;;;;;;;;;;;13.50;99.90;;;;;;5071744;28;20007;-72
2022/07/03 13:14:58;;;;;;;;;;;13.40;99.90;;;;;;5073366;28;19974;-68
2022/07/03 13:17:45;;;;;;;;;;;13.50;99.90;;;;;;5073932;28;20333;-68
2022/07/03 13:20:11;;;;;;;;;;;13.50;99.90;;;;;;5066829;28;19916;-73
2022/07/03 13:22:38;;;;;;;;;;;13.50;99.90;;;;;;5073767;28;20349;-68
2022/07/03 13:25:25;;;;;;;;;;;13.50;99.90;;;;;;5073999;28;19970;-68
2022/07/03 13:27:52;;;;;;;;;;;13.50;99.90;;;;;;5073316;28;20375;-73
2022/07/03 13:30:20;;;;;;;;;;;13.50;99.90;;;;;;5073945;28;19999;-70
2022/07/03 13:32:46;;;;;;;;;;;13.50;99.90;;;;;;5073726;28;19935;-73
2022/07/03 13:35:14;;;;;;;;;;;13.60;99.90;;;;;;5073694;28;19940;-69
2022/07/03 13:37:40;;;;;;;;;;;13.60;99.90;;;;;;5073011;28;19952;-73
2022/07/03 13:40:08;;;;;;;;;;;13.60;99.90;;;;;;5073811;28;19944;-73
2022/07/03 13:42:35;;;;;;;;;;;13.60;99.90;;;;;;5073626;28;19974;-70
2022/07/03 13:45:02;;;;;;;;;;;13.60;99.90;;;;;;5073441;28;19916;-69
2022/07/03 13:47:28;;;;;;;;;;;13.70;99.90;;;;;;5073730;28;19908;-69
2022/07/03 13:49:55;;;;;;;;;;;13.70;99.90;;;;;;5073639;28;20379;-74
2022/07/03 13:52:22;;;;;;;;;;;13.70;99.90;;;;;;5073844;28;19955;-69
2022/07/03 13:54:49;;;;;;;;;;;13.70;99.90;;;;;;5073382;28;20007;-73
2022/07/03 13:57:16;;;;;;;;;;;13.70;99.90;;;;;;5073320;28;19909;-69
2022/07/03 13:59:43;;;;;;;;;;;13.70;99.90;;;;;;5070027;28;20277;-74
2022/07/03 14:02:09;;;;;;;;;;;13.70;99.90;;;;;;5053788;28;20011;-68
2022/07/03 14:04:36;;;;;;;;;;;13.70;99.90;;;;;;5053578;28;20011;-73
2022/07/03 14:07:03;;;;;;;;;;;13.70;99.90;;;;;;5053864;28;19909;-69
2022/07/03 14:09:30;;;;;;;;;;;13.70;99.90;;;;;;5053565;28;20054;-69
2022/07/03 14:11:57;;;;;;;;;;;13.70;99.90;;;;;;5053550;28;20401;-74
2022/07/03 14:14:24;;;;;;;;;;;13.70;99.90;;;;;;5053498;28;20382;-69
2022/07/03 14:16:51;;;;;;;;;;;13.80;99.90;;;;;;5053554;28;19912;-69
2022/07/03 14:19:18;;;;;;;;;;;13.70;99.90;;;;;;5053454;28;19963;-70
2022/07/03 14:21:45;;;;;;;;;;;13.70;99.90;;;;;;5053586;28;20004;-68
2022/07/03 14:24:12;;;;;;;;;;;13.70;99.90;;;;;;5053182;28;19971;-74
2022/07/03 14:34:53;;;;;;;;;;;13.70;99.90;;;;;;5053714;28;19916;-74
2022/07/03 14:37:21;;;;;;;;;;;13.70;99.90;;;;;;5056108;28;19952;-70
2022/07/03 14:39:48;;;;;;;;;;;13.70;99.90;;;;;;5073582;28;19915;-74
2022/07/03 14:42:15;;;;;;;;;;;13.70;99.90;;;;;;5073145;28;20284;-70
2022/07/03 14:44:42;;;;;;;;;;;13.70;99.90;;;;;;5073135;28;19916;-69
2022/07/03 14:47:09;;;;;;;;;;;13.70;99.90;;;;;;5073149;28;19920;-69
2022/07/03 14:49:36;;;;;;;;;;;13.70;99.90;;;;;;5073806;28;19974;-70
2022/07/03 14:52:04;;;;;;;;;;;13.70;99.90;;;;;;5077026;28;19909;-72
2022/07/03 14:54:34;;;;;;;;;;;13.60;99.90;;;;;;5076877;28;19916;-72